sensor_id;sensor_type;location;lat;lon;timestamp;pressure;altitude;pressure_sealevel;temperature;humidity
72921;BME280;61064;51.654;5.476;2024-02-23T00:01:24;98868.47;;;4.67;100.00
72921;BME280;61064;51.654;5.476;2024-02-23T00:03:50;98869.34;;;4.66;100.00
72921;BME280;61064;51.654;5.476;2024-02-23T00:06:16;98872.84;;;4.71;100.00
72921;BME280;61064;51.654;5.476;2024-02-23T00:08:41;98879.84;;;4.75;100.00
72921;BME280;61064;51.654;5.476;2024-02-23T00:11:07;98881.63;;;4.73;100.00
72921;BME280;61064;51.654;5.476;2024-02-23T00:13:32;98888.66;;;4.78;100.00
72921;BME280;61064;51.654;5.476;2024-02-23T00:15:58;98871.09;;;4.73;100.00
72921;BME280;61064;51.654;5.476;2024-02-23T00:18:23;98878.13;;;4.78;100.00
72921;BME280;61064;51.654;5.476;2024-02-23T00:20:49;98886.88;;;4.80;100.00
72921;BME280;61064;51.654;5.476;2024-02-23T00:23:17;98883.38;;;4.78;100.00
72921;BME280;61064;51.654;5.476;2024-02-23T00:25:44;98881.63;;;4.83;100.00
72921;BME280;61064;51.654;5.476;2024-02-23T00:28:09;98880.72;;;4.83;100.00
72921;BME280;61064;51.654;5.476;2024-02-23T00:30:35;98883.38;;;4.84;100.00
72921;BME280;61064;51.654;5.476;2024-02-23T00:33:01;98904.41;;;4.90;100.00
72921;BME280;61064;51.654;5.476;2024-02-23T00:35:26;98897.41;;;4.89;100.00
72921;BME280;61064;51.654;5.476;2024-02-23T00:37:52;98886.84;;;4.94;100.00
72921;BME280;61064;51.654;5.476;2024-02-23T00:40:17;98897.38;;;4.92;100.00
72921;BME280;61064;51.654;5.476;2024-02-23T00:42:42;98906.16;;;4.97;100.00
72921;BME280;61064;51.654;5.476;2024-02-23T00:45:08;98894.75;;;4.95;100.00
72921;BME280;61064;51.654;5.476;2024-02-23T00:47:33;98914.06;;;4.99;100.00
72921;BME280;61064;51.654;5.476;2024-02-23T00:50:01;98912.28;;;4.96;100.00
72921;BME280;61064;51.654;5.476;2024-02-23T00:52:26;98913.19;;;4.98;100.00
72921;BME280;61064;51.654;5.476;2024-02-23T00:54:51;98914.06;;;4.99;100.00
72921;BME280;61064;51.654;5.476;2024-02-23T00:57:17;98922.84;;;4.98;100.00
72921;BME280;61064;51.654;5.476;2024-02-23T00:59:44;98929.00;;;4.98;100.00
72921;BME280;61064;51.654;5.476;2024-02-23T01:02:09;98927.25;;;5.00;100.00
72921;BME280;61064;51.654;5.476;2024-02-23T01:04:34;98937.78;;;5.00;100.00
72921;BME280;61064;51.654;5.476;2024-02-23T01:07:00;98933.41;;;5.01;100.00
72921;BME280;61064;51.654;5.476;2024-02-23T01:09:25;98935.13;;;5.02;100.00
72921;BME280;61064;51.654;5.476;2024-02-23T01:11:50;98930.75;;;5.01;100.00
72921;BME280;61064;51.654;5.476;2024-02-23T01:14:16;98932.50;;;5.00;100.00
72921;BME280;61064;51.654;5.476;2024-02-23T01:16:41;98950.06;;;5.03;100.00
72921;BME280;61064;51.654;5.476;2024-02-23T01:19:07;98950.94;;;5.07;100.00
72921;BME280;61064;51.654;5.476;2024-02-23T01:21:32;98948.31;;;5.03;100.00
72921;BME280;61064;51.654;5.476;2024-02-23T01:23:58;98951.81;;;5.06;100.00
72921;BME280;61064;51.654;5.476;2024-02-23T01:26:25;98952.72;;;5.06;100.00
72921;BME280;61064;51.654;5.476;2024-02-23T01:28:51;98963.22;;;5.08;100.00
72921;BME280;61064;51.654;5.476;2024-02-23T01:31:16;98964.13;;;5.07;100.00
72921;BME280;61064;51.654;5.476;2024-02-23T01:33:42;98957.06;;;5.09;100.00
72921;BME280;61064;51.654;5.476;2024-02-23T01:36:10;98950.06;;;5.11;100.00
72921;BME280;61064;51.654;5.476;2024-02-23T01:38:35;98967.59;;;5.13;100.00
72921;BME280;61064;51.654;5.476;2024-02-23T01:41:01;98972.88;;;5.15;100.00
72921;BME280;61064;51.654;5.476;2024-02-23T01:43:27;98959.69;;;5.15;100.00
72921;BME280;61064;51.654;5.476;2024-02-23T01:45:53;98965.88;;;5.12;100.00
72921;BME280;61064;51.654;5.476;2024-02-23T01:48:19;98969.38;;;5.17;100.00
72921;BME280;61064;51.654;5.476;2024-02-23T01:50:45;98972.84;;;5.19;100.00
72921;BME280;61064;51.654;5.476;2024-02-23T01:53:11;98976.38;;;5.14;100.00
72921;BME280;61064;51.654;5.476;2024-02-23T01:55:40;98974.63;;;5.19;100.00
72921;BME280;61064;51.654;5.476;2024-02-23T01:58:06;98977.25;;;5.19;100.00
72921;BME280;61064;51.654;5.476;2024-02-23T02:00:32;98990.44;;;5.22;100.00
72921;BME280;61064;51.654;5.476;2024-02-23T02:02:57;98971.13;;;5.15;100.00
72921;BME280;61064;51.654;5.476;2024-02-23T02:05:23;98974.63;;;5.19;100.00
72921;BME280;61064;51.654;5.476;2024-02-23T02:07:53;98971.13;;;5.18;100.00
72921;BME280;61064;51.654;5.476;2024-02-23T02:10:24;98982.53;;;5.14;100.00
72921;BME280;61064;51.654;5.476;2024-02-23T02:12:50;98965.84;;;5.15;100.00
72921;BME280;61064;51.654;5.476;2024-02-23T02:15:15;98969.38;;;5.16;100.00
72921;BME280;61064;51.654;5.476;2024-02-23T02:17:41;98971.97;;;5.19;100.00
72921;BME280;61064;51.654;5.476;2024-02-23T02:20:11;98988.69;;;5.24;100.00
72921;BME280;61064;51.654;5.476;2024-02-23T02:22:36;99002.72;;;5.26;100.00
72921;BME280;61064;51.654;5.476;2024-02-23T02:25:02;98982.53;;;5.22;100.00
72921;BME280;61064;51.654;5.476;2024-02-23T02:27:27;98993.94;;;5.28;100.00
72921;BME280;61064;51.654;5.476;2024-02-23T02:29:53;99003.59;;;5.26;100.00
72921;BME280;61064;51.654;5.476;2024-02-23T02:32:18;99002.75;;;5.29;100.00
72921;BME280;61064;51.654;5.476;2024-02-23T02:34:44;99003.59;;;5.25;100.00
72921;BME280;61064;51.654;5.476;2024-02-23T02:37:09;98995.69;;;5.26;100.00
72921;BME280;61064;51.654;5.476;2024-02-23T02:39:35;98987.81;;;5.22;100.00
72921;BME280;61064;51.654;5.476;2024-02-23T02:42:01;98999.22;;;5.22;100.00
72921;BME280;61064;51.654;5.476;2024-02-23T02:44:26;99001.88;;;5.21;100.00
72921;BME280;61064;51.654;5.476;2024-02-23T02:46:56;99020.31;;;5.21;100.00
72921;BME280;61064;51.654;5.476;2024-02-23T02:49:21;99004.50;;;5.15;100.00
72921;BME280;61064;51.654;5.476;2024-02-23T02:51:47;99015.94;;;5.09;100.00
72921;BME280;61064;51.654;5.476;2024-02-23T02:54:12;99026.47;;;5.14;100.00
72921;BME280;61064;51.654;5.476;2024-02-23T02:56:45;99028.22;;;5.13;100.00
72921;BME280;61064;51.654;5.476;2024-02-23T02:59:12;99029.97;;;5.14;100.00
72921;BME280;61064;51.654;5.476;2024-02-23T03:01:37;99022.94;;;5.15;100.00
72921;BME280;61064;51.654;5.476;2024-02-23T03:04:02;99025.59;;;5.09;100.00
72921;BME280;61064;51.654;5.476;2024-02-23T03:06:28;99035.25;;;5.11;100.00
72921;BME280;61064;51.654;5.476;2024-02-23T03:08:53;99026.47;;;5.11;100.00
72921;BME280;61064;51.654;5.476;2024-02-23T03:11:19;99035.25;;;5.10;100.00
72921;BME280;61064;51.654;5.476;2024-02-23T03:13:44;99037.91;;;5.10;100.00
72921;BME280;61064;51.654;5.476;2024-02-23T03:16:20;99036.16;;;5.01;100.00
72921;BME280;61064;51.654;5.476;2024-02-23T03:18:46;99035.28;;;5.07;100.00
72921;BME280;61064;51.654;5.476;2024-02-23T03:21:12;99038.75;;;5.07;100.00
72921;BME280;61064;51.654;5.476;2024-02-23T03:23:38;99038.75;;;5.07;100.00
72921;BME280;61064;51.654;5.476;2024-02-23T03:26:04;99045.78;;;5.13;100.00
72921;BME280;61064;51.654;5.476;2024-02-23T03:28:31;99034.38;;;5.08;100.00
72921;BME280;61064;51.654;5.476;2024-02-23T03:30:57;99039.66;;;5.12;100.00
72921;BME280;61064;51.654;5.476;2024-02-23T03:33:22;99038.78;;;5.10;100.00
72921;BME280;61064;51.654;5.476;2024-02-23T03:35:47;99038.78;;;5.06;100.00
72921;BME280;61064;51.654;5.476;2024-02-23T03:38:13;99037.00;;;5.08;100.00
72921;BME280;61064;51.654;5.476;2024-02-23T03:40:38;99031.75;;;5.09;100.00
72921;BME280;61064;51.654;5.476;2024-02-23T03:43:04;99048.44;;;5.10;100.00
72921;BME280;61064;51.654;5.476;2024-02-23T03:45:31;99043.16;;;5.03;100.00
72921;BME280;61064;51.654;5.476;2024-02-23T03:47:56;99038.78;;;5.02;100.00
72921;BME280;61064;51.654;5.476;2024-02-23T03:50:22;99057.22;;;5.06;100.00
72921;BME280;61064;51.654;5.476;2024-02-23T03:52:47;99053.72;;;5.07;100.00
72921;BME280;61064;51.654;5.476;2024-02-23T03:55:13;99044.06;;;5.06;100.00
72921;BME280;61064;51.654;5.476;2024-02-23T03:57:38;99060.75;;;5.05;100.00
72921;BME280;61064;51.654;5.476;2024-02-23T04:00:04;99060.72;;;5.09;100.00
72921;BME280;61064;51.654;5.476;2024-02-23T04:02:31;99044.94;;;5.06;100.00
72921;BME280;61064;51.654;5.476;2024-02-23T04:04:56;99049.31;;;5.09;100.00
72921;BME280;61064;51.654;5.476;2024-02-23T04:07:22;99058.97;;;5.13;100.00
72921;BME280;61064;51.654;5.476;2024-02-23T04:09:47;99045.81;;;5.07;100.00
72921;BME280;61064;51.654;5.476;2024-02-23T04:12:18;99033.50;;;5.07;100.00
72921;BME280;61064;51.654;5.476;2024-02-23T04:14:44;99052.81;;;5.15;100.00
72921;BME280;61064;51.654;5.476;2024-02-23T04:17:10;99033.50;;;5.12;100.00
72921;BME280;61064;51.654;5.476;2024-02-23T04:19:37;99047.56;;;5.15;100.00
72921;BME280;61064;51.654;5.476;2024-02-23T04:22:03;99064.25;;;5.23;100.00
72921;BME280;61064;51.654;5.476;2024-02-23T04:24:28;99049.31;;;5.19;100.00
72921;BME280;61064;51.654;5.476;2024-02-23T04:26:53;99048.41;;;5.26;100.00
72921;BME280;61064;51.654;5.476;2024-02-23T04:29:19;99049.28;;;5.33;100.00
72921;BME280;61064;51.654;5.476;2024-02-23T04:31:44;99058.09;;;5.29;100.00
72921;BME280;61064;51.654;5.476;2024-02-23T04:34:15;99065.13;;;5.33;100.00
72921;BME280;61064;51.654;5.476;2024-02-23T04:36:40;99066.00;;;5.32;100.00
72921;BME280;61064;51.654;5.476;2024-02-23T04:39:05;99075.66;;;5.34;100.00
72921;BME280;61064;51.654;5.476;2024-02-23T04:41:31;99067.75;;;5.27;100.00
72921;BME280;61064;51.654;5.476;2024-02-23T04:43:56;99063.34;;;5.30;100.00
72921;BME280;61064;51.654;5.476;2024-02-23T04:46:26;99066.88;;;5.29;100.00
72921;BME280;61064;51.654;5.476;2024-02-23T04:48:52;99077.41;;;5.35;100.00
72921;BME280;61064;51.654;5.476;2024-02-23T04:51:17;99079.16;;;5.30;100.00
72921;BME280;61064;51.654;5.476;2024-02-23T04:53:42;99078.31;;;5.34;100.00
72921;BME280;61064;51.654;5.476;2024-02-23T04:56:08;99073.88;;;5.36;100.00
72921;BME280;61064;51.654;5.476;2024-02-23T04:58:33;99084.44;;;5.39;100.00
72921;BME280;61064;51.654;5.476;2024-02-23T05:00:59;99064.22;;;5.37;100.00
72921;BME280;61064;51.654;5.476;2024-02-23T05:03:24;99084.44;;;5.39;100.00
72921;BME280;61064;51.654;5.476;2024-02-23T05:05:50;99078.28;;;5.48;100.00
72921;BME280;61064;51.654;5.476;2024-02-23T05:08:19;99076.50;;;5.41;100.00
72921;BME280;61064;51.654;5.476;2024-02-23T05:10:46;99089.69;;;5.50;100.00
72921;BME280;61064;51.654;5.476;2024-02-23T05:13:11;99099.38;;;5.48;100.00
72921;BME280;61064;51.654;5.476;2024-02-23T05:15:37;99094.97;;;5.47;100.00
72921;BME280;61064;51.654;5.476;2024-02-23T05:18:02;99087.06;;;5.50;100.00
72921;BME280;61064;51.654;5.476;2024-02-23T05:20:28;99083.56;;;5.51;100.00
72921;BME280;61064;51.654;5.476;2024-02-23T05:22:53;99090.56;;;5.55;100.00
72921;BME280;61064;51.654;5.476;2024-02-23T05:25:19;99099.34;;;5.59;100.00
72921;BME280;61064;51.654;5.476;2024-02-23T05:27:45;99090.56;;;5.60;99.97
72921;BME280;61064;51.654;5.476;2024-02-23T05:30:11;99088.81;;;5.60;99.98
72921;BME280;61064;51.654;5.476;2024-02-23T05:32:37;99093.19;;;5.60;100.00
72921;BME280;61064;51.654;5.476;2024-02-23T05:35:02;99084.41;;;5.56;99.70
72921;BME280;61064;51.654;5.476;2024-02-23T05:37:28;99091.44;;;5.62;100.00
72921;BME280;61064;51.654;5.476;2024-02-23T05:39:54;99084.38;;;5.64;99.91
72921;BME280;61064;51.654;5.476;2024-02-23T05:42:19;99088.78;;;5.63;99.64
72921;BME280;61064;51.654;5.476;2024-02-23T05:44:45;99081.78;;;5.62;99.76
72921;BME280;61064;51.654;5.476;2024-02-23T05:47:11;99075.59;;;5.68;99.66
72921;BME280;61064;51.654;5.476;2024-02-23T05:49:36;99078.25;;;5.66;99.74
72921;BME280;61064;51.654;5.476;2024-02-23T05:52:01;99058.03;;;5.59;99.74
72921;BME280;61064;51.654;5.476;2024-02-23T05:54:27;99077.38;;;5.63;99.83
72921;BME280;61064;51.654;5.476;2024-02-23T05:56:52;99072.06;;;5.64;99.92
72921;BME280;61064;51.654;5.476;2024-02-23T05:59:17;99061.50;;;5.70;99.74
72921;BME280;61064;51.654;5.476;2024-02-23T06:01:43;99060.66;;;5.68;99.69
72921;BME280;61064;51.654;5.476;2024-02-23T06:04:09;99050.09;;;5.64;99.62
72921;BME280;61064;51.654;5.476;2024-02-23T06:06:34;99065.03;;;5.71;99.48
72921;BME280;61064;51.654;5.476;2024-02-23T06:08:59;99062.41;;;5.65;99.74
72921;BME280;61064;51.654;5.476;2024-02-23T06:11:26;99073.81;;;5.70;99.76
72921;BME280;61064;51.654;5.476;2024-02-23T06:13:51;99061.53;;;5.66;99.62
72921;BME280;61064;51.654;5.476;2024-02-23T06:16:17;99065.03;;;5.69;99.88
72921;BME280;61064;51.654;5.476;2024-02-23T06:18:42;99057.16;;;5.68;99.50
72921;BME280;61064;51.654;5.476;2024-02-23T06:21:14;99051.84;;;5.69;99.41
72921;BME280;61064;51.654;5.476;2024-02-23T06:23:40;99062.38;;;5.75;99.19
72921;BME280;61064;51.654;5.476;2024-02-23T06:26:06;99070.31;;;5.78;99.50
72921;BME280;61064;51.654;5.476;2024-02-23T06:28:31;99069.44;;;5.79;98.97
72921;BME280;61064;51.654;5.476;2024-02-23T06:30:58;99073.78;;;5.82;98.91
72921;BME280;61064;51.654;5.476;2024-02-23T06:33:23;99091.38;;;5.81;99.19
72921;BME280;61064;51.654;5.476;2024-02-23T06:35:48;99076.44;;;5.82;98.80
72921;BME280;61064;51.654;5.476;2024-02-23T06:38:14;99061.50;;;5.79;98.83
72921;BME280;61064;51.654;5.476;2024-02-23T06:40:40;99073.81;;;5.85;98.55
72921;BME280;61064;51.654;5.476;2024-02-23T06:43:05;99087.00;;;5.88;98.31
72921;BME280;61064;51.654;5.476;2024-02-23T06:45:31;99072.06;;;5.87;98.67
72921;BME280;61064;51.654;5.476;2024-02-23T06:47:56;99074.69;;;5.89;98.36
72921;BME280;61064;51.654;5.476;2024-02-23T06:50:21;99069.41;;;5.89;98.47
72921;BME280;61064;51.654;5.476;2024-02-23T06:52:48;99072.94;;;5.88;98.33
72921;BME280;61064;51.654;5.476;2024-02-23T06:55:14;99073.78;;;5.86;98.48
72921;BME280;61064;51.654;5.476;2024-02-23T06:57:40;99062.38;;;5.84;98.36
72921;BME280;61064;51.654;5.476;2024-02-23T07:00:06;99072.94;;;5.88;98.21
72921;BME280;61064;51.654;5.476;2024-02-23T07:02:32;99065.91;;;5.88;98.20
72921;BME280;61064;51.654;5.476;2024-02-23T07:05:01;99081.72;;;5.90;98.17
72921;BME280;61064;51.654;5.476;2024-02-23T07:07:29;99064.13;;;5.92;97.79
72921;BME280;61064;51.654;5.476;2024-02-23T07:09:55;99076.44;;;5.93;98.00
72921;BME280;61064;51.654;5.476;2024-02-23T07:12:21;99060.59;;;5.91;97.95
72921;BME280;61064;51.654;5.476;2024-02-23T07:14:46;99071.16;;;5.93;97.82
72921;BME280;61064;51.654;5.476;2024-02-23T07:17:11;99076.44;;;5.93;97.50
72921;BME280;61064;51.654;5.476;2024-02-23T07:19:37;99073.78;;;5.97;97.76
72921;BME280;61064;51.654;5.476;2024-02-23T07:22:02;99067.63;;;5.98;97.36
72921;BME280;61064;51.654;5.476;2024-02-23T07:24:28;99050.94;;;5.95;96.94
72921;BME280;61064;51.654;5.476;2024-02-23T07:26:53;99067.63;;;6.00;97.09
72921;BME280;61064;51.654;5.476;2024-02-23T07:29:19;99067.59;;;6.06;97.27
72921;BME280;61064;51.654;5.476;2024-02-23T07:31:44;99081.66;;;6.06;96.86
72921;BME280;61064;51.654;5.476;2024-02-23T07:34:10;99073.75;;;6.06;97.01
72921;BME280;61064;51.654;5.476;2024-02-23T07:36:35;99066.72;;;6.05;96.84
72921;BME280;61064;51.654;5.476;2024-02-23T07:39:01;99081.66;;;6.08;96.60
72921;BME280;61064;51.654;5.476;2024-02-23T07:41:26;99063.19;;;6.05;96.54
72921;BME280;61064;51.654;5.476;2024-02-23T07:43:51;99057.00;;;6.12;96.62
72921;BME280;61064;51.654;5.476;2024-02-23T07:46:17;99063.16;;;6.15;96.62
72921;BME280;61064;51.654;5.476;2024-02-23T07:48:42;99064.03;;;6.17;96.55
72921;BME280;61064;51.654;5.476;2024-02-23T07:51:09;99048.16;;;6.20;96.41
72921;BME280;61064;51.654;5.476;2024-02-23T07:53:37;99052.56;;;6.23;96.53
72921;BME280;61064;51.654;5.476;2024-02-23T07:56:03;99044.63;;;6.20;96.48
72921;BME280;61064;51.654;5.476;2024-02-23T07:58:29;99056.06;;;6.26;96.30
72921;BME280;61064;51.654;5.476;2024-02-23T08:00:54;99055.16;;;6.24;96.16
72921;BME280;61064;51.654;5.476;2024-02-23T08:03:19;99050.78;;;6.28;96.08
72921;BME280;61064;51.654;5.476;2024-02-23T08:05:45;99045.50;;;6.30;96.16
72921;BME280;61064;51.654;5.476;2024-02-23T08:08:10;99048.13;;;6.30;96.13
72921;BME280;61064;51.654;5.476;2024-02-23T08:10:35;99055.13;;;6.32;96.16
72921;BME280;61064;51.654;5.476;2024-02-23T08:13:01;99051.63;;;6.35;96.04
72921;BME280;61064;51.654;5.476;2024-02-23T08:15:29;99052.47;;;6.37;96.02
72921;BME280;61064;51.654;5.476;2024-02-23T08:17:54;99044.53;;;6.40;95.83
72921;BME280;61064;51.654;5.476;2024-02-23T08:20:19;99028.69;;;6.40;95.91
72921;BME280;61064;51.654;5.476;2024-02-23T08:22:45;99047.13;;;6.52;95.72
72921;BME280;61064;51.654;5.476;2024-02-23T08:25:10;99040.03;;;6.57;95.56
72921;BME280;61064;51.654;5.476;2024-02-23T08:27:36;99033.84;;;6.58;95.83
72921;BME280;61064;51.654;5.476;2024-02-23T08:30:01;99040.00;;;6.63;95.41
72921;BME280;61064;51.654;5.476;2024-02-23T08:32:27;99044.41;;;6.62;95.37
72921;BME280;61064;51.654;5.476;2024-02-23T08:34:52;99040.84;;;6.68;95.13
72921;BME280;61064;51.654;5.476;2024-02-23T08:37:24;99031.16;;;6.68;94.93
72921;BME280;61064;51.654;5.476;2024-02-23T08:39:49;99039.03;;;6.72;94.93
72921;BME280;61064;51.654;5.476;2024-02-23T08:42:15;99037.25;;;6.75;95.06
72921;BME280;61064;51.654;5.476;2024-02-23T08:44:40;99030.22;;;6.74;95.05
72921;BME280;61064;51.654;5.476;2024-02-23T08:47:06;99034.63;;;6.74;94.89
72921;BME280;61064;51.654;5.476;2024-02-23T08:49:31;99043.38;;;6.80;94.46
72921;BME280;61064;51.654;5.476;2024-02-23T08:51:57;99040.72;;;6.80;94.77
72921;BME280;61064;51.654;5.476;2024-02-23T08:54:24;99033.69;;;6.82;94.90
72921;BME280;61064;51.654;5.476;2024-02-23T08:56:49;99038.97;;;6.84;94.57
72921;BME280;61064;51.654;5.476;2024-02-23T08:59:14;99028.41;;;6.82;94.74
72921;BME280;61064;51.654;5.476;2024-02-23T09:01:40;99033.63;;;6.87;94.69
72921;BME280;61064;51.654;5.476;2024-02-23T09:04:05;99038.88;;;6.91;94.75
72921;BME280;61064;51.654;5.476;2024-02-23T09:06:31;99038.91;;;6.87;94.33
72921;BME280;61064;51.654;5.476;2024-02-23T09:08:58;99039.81;;;6.86;94.34
72921;BME280;61064;51.654;5.476;2024-02-23T09:11:24;99035.38;;;6.91;94.26
72921;BME280;61064;51.654;5.476;2024-02-23T09:13:49;99031.00;;;6.90;94.50
72921;BME280;61064;51.654;5.476;2024-02-23T09:16:14;99016.91;;;6.89;94.40
72921;BME280;61064;51.654;5.476;2024-02-23T09:18:40;99030.06;;;6.94;94.42
72921;BME280;61064;51.654;5.476;2024-02-23T09:21:06;99021.28;;;6.89;94.22
72921;BME280;61064;51.654;5.476;2024-02-23T09:23:31;99037.09;;;6.96;94.23
72921;BME280;61064;51.654;5.476;2024-02-23T09:25:57;99029.16;;;6.98;94.04
72921;BME280;61064;51.654;5.476;2024-02-23T09:28:23;99028.22;;;7.05;94.14
72921;BME280;61064;51.654;5.476;2024-02-23T09:30:48;99025.53;;;7.08;93.80
72921;BME280;61064;51.654;5.476;2024-02-23T09:33:13;99023.69;;;7.16;93.85
72921;BME280;61064;51.654;5.476;2024-02-23T09:35:39;99032.47;;;7.21;93.82
72921;BME280;61064;51.654;5.476;2024-02-23T09:38:04;99042.16;;;7.22;93.61
72921;BME280;61064;51.654;5.476;2024-02-23T09:40:30;99043.03;;;7.20;93.37
72921;BME280;61064;51.654;5.476;2024-02-23T09:42:56;99045.69;;;7.24;93.57
72921;BME280;61064;51.654;5.476;2024-02-23T09:45:24;99040.38;;;7.24;93.64
72921;BME280;61064;51.654;5.476;2024-02-23T09:47:50;99051.81;;;7.25;93.93
72921;BME280;61064;51.654;5.476;2024-02-23T09:50:17;99057.09;;;7.26;93.86
72921;BME280;61064;51.654;5.476;2024-02-23T09:52:45;99043.97;;;7.19;93.85
72921;BME280;61064;51.654;5.476;2024-02-23T09:55:12;99072.13;;;7.23;93.95
72921;BME280;61064;51.654;5.476;2024-02-23T09:57:37;99081.00;;;7.16;93.68
72921;BME280;61064;51.654;5.476;2024-02-23T10:00:03;99068.69;;;7.12;93.90
72921;BME280;61064;51.654;5.476;2024-02-23T10:02:32;99070.50;;;7.05;94.13
72921;BME280;61064;51.654;5.476;2024-02-23T10:04:59;99078.41;;;7.08;94.10
72921;BME280;61064;51.654;5.476;2024-02-23T10:07:27;99070.56;;;7.00;94.27
72921;BME280;61064;51.654;5.476;2024-02-23T10:09:53;99071.44;;;6.98;94.47
72921;BME280;61064;51.654;5.476;2024-02-23T10:12:21;99081.13;;;6.97;94.42
72921;BME280;61064;51.654;5.476;2024-02-23T10:14:46;99071.47;;;6.95;94.42
72921;BME280;61064;51.654;5.476;2024-02-23T10:17:14;99074.13;;;6.93;94.52
72921;BME280;61064;51.654;5.476;2024-02-23T10:19:40;99064.47;;;6.88;94.34
72921;BME280;61064;51.654;5.476;2024-02-23T10:22:05;99066.22;;;6.90;94.42
72921;BME280;61064;51.654;5.476;2024-02-23T10:24:38;99071.44;;;7.01;94.41
72921;BME280;61064;51.654;5.476;2024-02-23T10:27:03;99091.66;;;7.03;94.83
72921;BME280;61064;51.654;5.476;2024-02-23T10:29:30;99079.38;;;7.01;94.61
72921;BME280;61064;51.654;5.476;2024-02-23T10:31:57;99092.53;;;7.07;94.64
72921;BME280;61064;51.654;5.476;2024-02-23T10:34:24;99106.56;;;7.15;94.41
72921;BME280;61064;51.654;5.476;2024-02-23T10:36:49;99094.25;;;7.13;94.53
72921;BME280;61064;51.654;5.476;2024-02-23T10:39:16;99105.63;;;7.19;94.40
72921;BME280;61064;51.654;5.476;2024-02-23T10:41:57;99112.72;;;7.19;94.02
72921;BME280;61064;51.654;5.476;2024-02-23T10:44:28;99109.16;;;7.23;94.26
72921;BME280;61064;51.654;5.476;2024-02-23T10:46:54;99119.72;;;7.23;94.08
72921;BME280;61064;51.654;5.476;2024-02-23T10:49:23;99117.09;;;7.23;93.95
72921;BME280;61064;51.654;5.476;2024-02-23T10:51:51;99125.88;;;7.25;94.05
72921;BME280;61064;51.654;5.476;2024-02-23T10:54:19;99129.44;;;7.21;94.24
72921;BME280;61064;51.654;5.476;2024-02-23T10:56:50;99132.06;;;7.24;94.22
72921;BME280;61064;51.654;5.476;2024-02-23T10:59:17;99120.63;;;7.22;94.20
72921;BME280;61064;51.654;5.476;2024-02-23T11:01:51;99134.69;;;7.25;94.30
72921;BME280;61064;51.654;5.476;2024-02-23T11:04:19;99127.56;;;7.33;94.21
72921;BME280;61064;51.654;5.476;2024-02-23T11:06:54;99121.41;;;7.33;94.29
72921;BME280;61064;51.654;5.476;2024-02-23T11:09:24;99117.81;;;7.40;94.23
72921;BME280;61064;51.654;5.476;2024-02-23T11:11:56;99144.19;;;7.47;94.07
72921;BME280;61064;51.654;5.476;2024-02-23T11:14:32;99134.47;;;7.51;94.16
72921;BME280;61064;51.654;5.476;2024-02-23T11:16:59;99130.06;;;7.51;94.00
72921;BME280;61064;51.654;5.476;2024-02-23T11:19:36;99132.66;;;7.58;93.78
72921;BME280;61064;51.654;5.476;2024-02-23T11:22:02;99124.72;;;7.58;94.01
72921;BME280;61064;51.654;5.476;2024-02-23T11:24:29;99122.03;;;7.61;94.02
72921;BME280;61064;51.654;5.476;2024-02-23T11:26:59;99135.22;;;7.67;94.01
72921;BME280;61064;51.654;5.476;2024-02-23T11:29:26;99130.81;;;7.64;93.88
72921;BME280;61064;51.654;5.476;2024-02-23T11:31:58;99132.56;;;7.65;93.82
72921;BME280;61064;51.654;5.476;2024-02-23T11:34:29;99135.16;;;7.74;93.91
72921;BME280;61064;51.654;5.476;2024-02-23T11:36:55;99138.66;;;7.76;93.78
72921;BME280;61064;51.654;5.476;2024-02-23T11:39:22;99125.47;;;7.73;93.43
72921;BME280;61064;51.654;5.476;2024-02-23T11:41:49;99136.88;;;7.77;93.57
72921;BME280;61064;51.654;5.476;2024-02-23T11:44:15;99127.22;;;7.74;93.27
72921;BME280;61064;51.654;5.476;2024-02-23T11:46:42;99132.41;;;7.80;93.17
72921;BME280;61064;51.654;5.476;2024-02-23T11:49:08;99146.53;;;7.85;93.38
72921;BME280;61064;51.654;5.476;2024-02-23T11:51:34;99134.16;;;7.84;93.18
72921;BME280;61064;51.654;5.476;2024-02-23T11:54:02;99132.41;;;7.82;93.03
72921;BME280;61064;51.654;5.476;2024-02-23T11:56:29;99154.41;;;7.87;92.96
72921;BME280;61064;51.654;5.476;2024-02-23T11:58:55;99152.66;;;7.90;92.99
72921;BME280;61064;51.654;5.476;2024-02-23T12:01:21;99156.16;;;7.91;92.70
72921;BME280;61064;51.654;5.476;2024-02-23T12:03:46;99152.59;;;7.95;92.62
72921;BME280;61064;51.654;5.476;2024-02-23T12:06:13;99148.13;;;8.00;92.60
72921;BME280;61064;51.654;5.476;2024-02-23T12:08:40;99153.41;;;8.02;92.20
72921;BME280;61064;51.654;5.476;2024-02-23T12:11:07;99143.72;;;8.01;92.69
72921;BME280;61064;51.654;5.476;2024-02-23T12:13:34;99142.78;;;8.05;92.47
72921;BME280;61064;51.654;5.476;2024-02-23T12:16:01;99148.94;;;8.04;92.33
72921;BME280;61064;51.654;5.476;2024-02-23T12:18:27;99153.31;;;8.09;92.43
72921;BME280;61064;51.654;5.476;2024-02-23T12:20:59;99141.88;;;8.06;92.07
72921;BME280;61064;51.654;5.476;2024-02-23T12:23:25;99155.91;;;8.14;92.38
72921;BME280;61064;51.654;5.476;2024-02-23T12:25:56;99154.94;;;8.19;91.95
72921;BME280;61064;51.654;5.476;2024-02-23T12:28:22;99144.34;;;8.19;92.17
72921;BME280;61064;51.654;5.476;2024-02-23T12:31:00;99130.28;;;8.14;91.95
72921;BME280;61064;51.654;5.476;2024-02-23T12:33:31;99146.91;;;8.28;91.99
72921;BME280;61064;51.654;5.476;2024-02-23T12:35:58;99153.94;;;8.36;91.93
72921;BME280;61064;51.654;5.476;2024-02-23T12:38:23;99153.03;;;8.37;91.63
72921;BME280;61064;51.654;5.476;2024-02-23T12:40:50;99159.19;;;8.39;91.52
72921;BME280;61064;51.654;5.476;2024-02-23T12:43:16;99160.97;;;8.40;91.31
72921;BME280;61064;51.654;5.476;2024-02-23T12:45:42;99149.53;;;8.34;91.31
72921;BME280;61064;51.654;5.476;2024-02-23T12:48:09;99159.25;;;8.32;91.36
72921;BME280;61064;51.654;5.476;2024-02-23T12:50:37;99157.44;;;8.36;91.19
72921;BME280;61064;51.654;5.476;2024-02-23T12:53:03;99160.16;;;8.31;91.25
72921;BME280;61064;51.654;5.476;2024-02-23T12:55:29;99160.19;;;8.30;91.17
72921;BME280;61064;51.654;5.476;2024-02-23T12:57:54;99161.94;;;8.31;91.34
72921;BME280;61064;51.654;5.476;2024-02-23T13:00:20;99165.44;;;8.31;91.42
72921;BME280;61064;51.654;5.476;2024-02-23T13:02:46;99146.94;;;8.25;91.39